createdAt,value
2018-11-03T00:00:54.048Z,28.47
2018-11-03T00:03:24.167Z,28.03
2018-11-03T00:05:54.187Z,26.93
2018-11-03T00:08:24.406Z,27.33
2018-11-03T00:10:54.748Z,25.97
2018-11-03T00:13:25.253Z,26.33
2018-11-03T00:15:55.096Z,26.60
2018-11-03T00:18:25.197Z,24.90
2018-11-03T00:20:55.309Z,24.20
2018-11-03T00:23:25.166Z,25.53
2018-11-03T00:25:54.827Z,26.10
2018-11-03T00:28:24.744Z,26.97
2018-11-03T00:30:55.370Z,27.87
2018-11-03T00:33:25.516Z,27.57
2018-11-03T00:35:55.312Z,25.77
2018-11-03T00:38:25.134Z,26.23
2018-11-03T00:40:54.834Z,25.37
2018-11-03T00:43:24.939Z,26.30
2018-11-03T00:45:54.346Z,23.60
2018-11-03T00:48:24.052Z,29.00
2018-11-03T00:50:53.766Z,25.23
2018-11-03T00:53:23.677Z,26.47
2018-11-03T00:55:53.727Z,33.20
2018-11-03T00:58:23.854Z,27.17
2018-11-03T01:00:53.853Z,29.17
2018-11-03T01:03:23.868Z,26.60
2018-11-03T01:05:53.561Z,26.67
2018-11-03T01:08:23.375Z,27.83
2018-11-03T01:10:53.384Z,26.93
2018-11-03T01:13:22.981Z,28.00
2018-11-03T01:15:53.213Z,29.57
2018-11-03T01:18:23.038Z,27.63
2018-11-03T01:20:53.256Z,28.23
2018-11-03T01:23:22.756Z,26.63
2018-11-03T01:25:52.796Z,29.27
2018-11-03T01:28:22.372Z,26.40
2018-11-03T01:30:52.287Z,24.83
2018-11-03T01:33:22.201Z,24.13
2018-11-03T01:35:51.907Z,26.23
2018-11-03T01:38:21.848Z,24.93
2018-11-03T01:40:52.075Z,24.50
2018-11-03T01:43:22.365Z,28.10
2018-11-03T01:45:52.281Z,25.27
2018-11-03T01:48:22.204Z,25.67
2018-11-03T01:50:52.223Z,27.23
2018-11-03T01:53:22.022Z,26.77
2018-11-03T01:55:51.841Z,26.40
2018-11-03T01:58:21.648Z,27.60
2018-11-03T02:00:51.561Z,30.30
2018-11-03T02:03:21.680Z,30.63
2018-11-03T02:05:51.597Z,31.83
2018-11-03T02:08:21.203Z,29.13
2018-11-03T02:10:51.122Z,34.67
2018-11-03T02:13:20.824Z,30.37
2018-11-03T02:15:51.561Z,29.97
2018-11-03T02:18:21.781Z,34.43
2018-11-03T02:20:51.695Z,29.40
2018-11-03T02:23:21.401Z,31.77
2018-11-03T02:25:51.745Z,30.40
2018-11-03T02:28:21.459Z,29.67
2018-11-03T02:30:51.145Z,28.07
2018-11-03T02:33:21.469Z,29.80
2018-11-03T02:35:56.324Z,30.53
2018-11-03T02:38:30.644Z,28.73
2018-11-03T02:41:01.048Z,28.23
2018-11-03T02:43:35.888Z,26.30
2018-11-03T02:46:06.426Z,27.80
2018-11-03T02:48:41.026Z,29.43
2018-11-03T02:51:11.811Z,28.33
2018-11-03T02:53:42.921Z,27.90
2018-11-03T02:56:16.294Z,27.77
2018-11-03T02:58:48.259Z,27.40
2018-11-03T03:01:29.446Z,28.87
2018-11-03T03:03:59.761Z,31.07
2018-11-03T03:06:33.159Z,31.60
2018-11-03T03:09:02.983Z,30.63
2018-11-03T03:11:34.733Z,34.00
2018-11-03T03:14:08.632Z,29.33
2018-11-03T03:16:38.348Z,28.80
2018-11-03T03:19:12.766Z,31.53
2018-11-03T03:21:48.936Z,32.00
2018-11-03T03:24:19.460Z,31.57
2018-11-03T03:26:49.673Z,30.83
2018-11-03T03:29:19.619Z,30.83
2018-11-03T03:31:49.293Z,35.30
2018-11-03T03:34:19.308Z,28.13
2018-11-03T03:36:49.068Z,28.17
2018-11-03T03:39:19.348Z,31.37
2018-11-03T03:41:49.156Z,32.97
2018-11-03T03:44:19.706Z,29.87
2018-11-03T03:46:49.925Z,32.37
2018-11-03T03:49:19.946Z,31.07
2018-11-03T03:51:50.254Z,32.70
2018-11-03T03:54:21.133Z,29.33
2018-11-03T03:56:51.535Z,27.77
2018-11-03T03:59:21.641Z,30.87
2018-11-03T04:01:51.866Z,33.63
2018-11-03T04:04:21.903Z,30.77
2018-11-03T04:06:52.409Z,31.30
2018-11-03T04:09:22.953Z,31.63
2018-11-03T04:11:53.356Z,28.27
2018-11-03T04:14:23.804Z,31.33
2018-11-03T04:16:54.014Z,35.23
2018-11-03T04:19:24.124Z,28.73
2018-11-03T04:21:54.541Z,29.87
2018-11-03T04:24:24.163Z,32.37
2018-11-03T04:26:54.161Z,30.07
2018-11-03T04:29:24.078Z,31.40
2018-11-03T04:31:53.995Z,33.33
2018-11-03T04:34:23.806Z,29.03
2018-11-03T04:36:53.719Z,31.13
2018-11-03T04:39:23.632Z,29.77
2018-11-03T04:41:54.369Z,31.47
2018-11-03T04:44:24.194Z,31.00
2018-11-03T04:46:53.986Z,31.83
2018-11-03T04:49:24.316Z,33.50
2018-11-03T04:51:54.744Z,28.90
2018-11-03T04:54:25.696Z,31.47
2018-11-03T04:56:56.307Z,28.80
2018-11-03T04:59:27.252Z,29.03
2018-11-03T05:01:57.789Z,30.70
2018-11-03T05:04:28.609Z,29.70
2018-11-03T05:06:58.639Z,30.73
2018-11-03T05:09:28.539Z,29.97
2018-11-03T05:11:58.577Z,27.97
2018-11-03T05:14:29.599Z,28.40
2018-11-03T05:17:00.358Z,29.73
2018-11-03T05:19:30.349Z,28.23
2018-11-03T05:22:00.908Z,31.63
2018-11-03T05:24:31.323Z,29.97
2018-11-03T05:27:02.449Z,25.10
2018-11-03T05:29:33.092Z,27.17
2018-11-03T05:32:03.325Z,33.53
2018-11-03T05:34:34.158Z,31.63
2018-11-03T05:37:04.251Z,30.43
2018-11-03T05:39:34.484Z,31.83
2018-11-03T05:42:04.697Z,34.37
2018-11-03T05:44:34.711Z,33.87
2018-11-03T05:47:04.727Z,38.37
2018-11-03T05:49:34.739Z,33.30
2018-11-03T05:52:04.657Z,41.23
2018-11-03T05:54:34.794Z,34.00
2018-11-03T05:57:05.108Z,38.43
2018-11-03T05:59:35.134Z,35.43
2018-11-03T06:02:05.131Z,34.37
2018-11-03T06:04:35.292Z,35.50
2018-11-03T06:07:05.788Z,37.07
2018-11-03T06:09:35.894Z,35.23
2018-11-03T06:12:06.746Z,38.70
2018-11-03T06:14:36.859Z,36.13
2018-11-03T06:17:07.279Z,33.90
2018-11-03T06:19:38.053Z,36.63
2018-11-03T06:22:08.744Z,38.43
2018-11-03T06:24:38.587Z,35.57
2018-11-03T06:27:08.785Z,38.30
2018-11-03T06:29:38.807Z,36.80
2018-11-03T06:32:09.335Z,41.37
2018-11-03T06:34:39.917Z,40.20
2018-11-03T06:37:10.073Z,40.23
2018-11-03T06:39:40.196Z,43.37
2018-11-03T06:42:10.524Z,37.53
2018-11-03T06:45:01.460Z,36.77
2018-11-03T06:47:31.988Z,38.27
2018-11-03T06:50:03.000Z,38.47
2018-11-03T06:52:33.828Z,36.83
2018-11-03T06:55:04.260Z,43.23
2018-11-03T06:57:36.781Z,37.77
2018-11-03T07:00:08.182Z,36.90
2018-11-03T07:02:39.220Z,34.00
2018-11-03T07:05:10.339Z,34.87
2018-11-03T07:07:41.609Z,42.03
2018-11-03T07:10:13.376Z,42.17
2018-11-03T07:12:44.017Z,42.03
2018-11-03T07:15:14.119Z,39.07
2018-11-03T07:17:49.250Z,36.17
2018-11-03T07:20:21.313Z,35.63
2018-11-03T07:22:52.921Z,37.67
2018-11-03T07:25:25.441Z,35.13
2018-11-03T07:27:56.792Z,41.30
2018-11-03T07:30:27.728Z,40.40
2018-11-03T07:32:58.874Z,34.27
2018-11-03T07:35:29.321Z,36.17
2018-11-03T07:38:00.541Z,39.03
2018-11-03T07:40:30.775Z,34.60
2018-11-03T07:43:01.291Z,38.07
2018-11-03T07:45:32.869Z,37.43
2018-11-03T07:48:04.177Z,46.53
2018-11-03T07:50:34.325Z,37.57
2018-11-03T07:53:05.927Z,46.07
2018-11-03T07:55:38.134Z,38.63
2018-11-03T07:58:09.482Z,36.37
2018-11-03T08:00:40.750Z,41.50
2018-11-03T08:03:11.764Z,39.33
2018-11-03T08:05:42.294Z,35.97
2018-11-03T08:08:14.465Z,45.53
2018-11-03T08:10:44.897Z,38.80
2018-11-03T08:13:15.834Z,60.17
2018-11-03T08:15:48.864Z,41.43
2018-11-03T08:18:19.750Z,34.93
2018-11-03T08:20:52.023Z,39.20
2018-11-03T08:23:23.808Z,35.70
2018-11-03T08:25:56.922Z,36.80
2018-11-03T08:28:27.303Z,37.27
2018-11-03T08:30:57.623Z,37.20
2018-11-03T08:33:27.527Z,46.60
2018-11-03T08:35:58.258Z,34.53
2018-11-03T08:38:28.695Z,39.53
2018-11-03T08:40:58.702Z,39.30
2018-11-03T08:43:28.725Z,38.13
2018-11-03T08:45:58.861Z,36.43
2018-11-03T08:48:31.691Z,36.23
2018-11-03T08:51:01.848Z,34.30
2018-11-03T08:53:31.765Z,31.10
2018-11-03T08:56:04.704Z,35.40
2018-11-03T08:58:35.283Z,40.20
2018-11-03T09:01:05.187Z,32.83
2018-11-03T09:03:35.129Z,33.50
2018-11-03T09:06:05.116Z,37.93
2018-11-03T09:08:36.268Z,35.40
2018-11-03T09:11:06.701Z,36.17
2018-11-03T09:13:39.473Z,36.43
2018-11-03T09:16:09.993Z,39.30
2018-11-03T09:18:40.955Z,38.60
2018-11-03T09:21:11.258Z,34.23
2018-11-03T09:23:41.488Z,44.77
2018-11-03T09:26:11.720Z,37.27
2018-11-03T09:28:41.821Z,41.83
2018-11-03T09:31:12.144Z,35.93
2018-11-03T09:33:42.282Z,40.00
2018-11-03T09:36:12.482Z,85.73
2018-11-03T09:38:42.331Z,40.33
2018-11-03T09:41:12.114Z,51.87
2018-11-03T09:43:42.747Z,40.40
2018-11-03T09:46:12.660Z,39.93
2018-11-03T09:48:42.780Z,41.57
2018-11-03T09:51:13.857Z,37.87
2018-11-03T09:53:43.719Z,32.50
2018-11-03T09:56:16.302Z,35.27
2018-11-03T09:58:46.322Z,30.53
2018-11-03T10:01:16.870Z,29.07
2018-11-03T10:03:46.352Z,42.90
2018-11-03T10:06:16.690Z,31.33
2018-11-03T10:08:46.401Z,35.40
2018-11-03T10:11:16.194Z,26.70
2018-11-03T10:13:46.003Z,29.70
2018-11-03T10:16:15.716Z,30.27
2018-11-03T10:18:46.243Z,24.80
2018-11-03T10:21:15.963Z,28.17
2018-11-03T10:23:45.560Z,29.30
2018-11-03T10:26:15.801Z,31.00
2018-11-03T10:28:45.907Z,28.53
2018-11-03T10:31:15.711Z,31.77
2018-11-03T10:33:45.767Z,31.90
2018-11-03T10:36:16.061Z,36.63
2018-11-03T10:38:46.282Z,46.30
2018-11-03T10:41:16.389Z,27.80
2018-11-03T10:43:47.039Z,35.03
2018-11-03T10:46:17.198Z,36.20
2018-11-03T10:48:49.420Z,33.60
2018-11-03T10:51:19.635Z,34.67
2018-11-03T10:53:49.862Z,30.60
2018-11-03T10:56:19.774Z,28.80
2018-11-03T10:58:49.909Z,28.07
2018-11-03T11:01:23.393Z,47.20
2018-11-03T11:03:57.201Z,35.43
2018-11-03T11:06:31.103Z,39.57
2018-11-03T11:09:07.249Z,36.93
2018-11-03T11:11:41.575Z,28.43
2018-11-03T11:14:14.273Z,54.13
2018-11-03T11:16:44.805Z,25.90
2018-11-03T11:19:14.595Z,24.13
2018-11-03T11:21:44.714Z,22.23
2018-11-03T11:24:16.004Z,23.67
2018-11-03T11:26:46.293Z,24.30
2018-11-03T11:29:27.581Z,26.47
2018-11-03T11:50:43.081Z,27.00
2018-11-03T11:53:13.302Z,19.93
2018-11-03T11:55:43.807Z,18.03
2018-11-03T11:58:13.730Z,20.10
2018-11-03T12:00:44.080Z,24.67
2018-11-03T12:03:14.066Z,30.73
2018-11-03T12:05:44.187Z,31.60
2018-11-03T12:08:13.987Z,35.17
2018-11-03T12:10:54.292Z,35.83
2018-11-03T12:13:24.779Z,47.07
2018-11-03T12:15:58.929Z,39.23
2018-11-03T12:18:29.317Z,23.57
2018-11-03T12:21:00.946Z,20.47
2018-11-03T12:23:31.706Z,20.93
2018-11-03T12:26:02.438Z,20.70
2018-11-03T12:28:32.564Z,24.70
2018-11-03T12:31:04.838Z,21.87
2018-11-03T12:33:35.356Z,24.10
2018-11-03T12:36:05.680Z,26.10
2018-11-03T12:38:36.752Z,27.37
2018-11-03T12:41:07.154Z,31.10
2018-11-03T12:43:37.281Z,30.57
2018-11-03T12:46:07.716Z,17.77
2018-11-03T12:48:37.822Z,19.13
2018-11-03T12:51:07.727Z,24.57
2018-11-03T12:53:37.543Z,26.80
2018-11-03T12:56:07.452Z,21.03
2018-11-03T12:58:37.482Z,16.97
2018-11-03T13:01:35.442Z,22.80
2018-11-03T13:04:08.635Z,27.40
2018-11-03T13:06:38.338Z,24.43
2018-11-03T13:09:08.972Z,27.63
2018-11-03T13:11:38.687Z,74.43
2018-11-03T13:14:09.308Z,30.70
2018-11-03T13:16:40.051Z,45.77
2018-11-03T13:19:09.755Z,35.70
2018-11-03T13:21:51.639Z,31.83
2018-11-03T13:43:07.247Z,45.00
2018-11-03T13:45:37.686Z,43.83
2018-11-03T13:48:07.694Z,58.77
2018-11-03T13:50:39.758Z,47.63
2018-11-03T13:53:09.771Z,44.50
2018-11-03T13:55:40.401Z,46.73
2018-11-03T13:58:11.359Z,42.40
2018-11-03T14:00:41.480Z,35.43
2018-11-03T14:03:12.080Z,40.60
2018-11-03T14:05:42.110Z,69.83
2018-11-03T14:08:12.121Z,77.63
2018-11-03T14:10:42.757Z,76.80
2018-11-03T14:13:12.768Z,68.20
2018-11-03T14:15:42.478Z,88.40
2018-11-03T14:18:19.377Z,67.13
2018-11-03T14:23:35.067Z,79.87
2018-11-03T14:26:04.779Z,63.73
2018-11-03T14:28:34.792Z,56.60
2018-11-03T14:31:04.801Z,57.33
2018-11-03T14:33:34.815Z,83.83
2018-11-03T14:36:05.051Z,83.40
2018-11-03T14:38:34.644Z,126.30
2018-11-03T14:41:04.662Z,55.57
2018-11-03T14:43:34.382Z,48.30
2018-11-03T14:46:04.072Z,43.53
2018-11-03T14:48:33.788Z,41.87
2018-11-03T14:51:03.824Z,38.27
2018-11-03T14:53:33.307Z,65.57
2018-11-03T14:56:03.008Z,47.57
2018-11-03T14:58:32.730Z,55.67
2018-11-03T15:01:02.444Z,45.90
2018-11-03T15:03:32.247Z,54.30
2018-11-03T15:06:01.855Z,78.13
2018-11-03T15:08:31.694Z,65.43
2018-11-03T15:11:01.373Z,80.97
2018-11-03T15:13:30.909Z,64.67
2018-11-03T15:16:00.693Z,110.03
2018-11-03T15:18:30.707Z,74.70
2018-11-03T15:21:00.424Z,60.97
2018-11-03T15:23:30.129Z,109.77
2018-11-03T15:25:59.842Z,136.80
2018-11-03T15:28:29.445Z,69.57
2018-11-03T15:30:59.252Z,143.67
2018-11-03T15:33:29.168Z,109.47
2018-11-03T15:35:58.778Z,81.93
2018-11-03T15:38:28.998Z,57.73
2018-11-03T15:40:58.501Z,44.63
2018-11-03T15:43:28.619Z,46.33
2018-11-03T15:45:58.011Z,48.87
2018-11-03T15:48:27.835Z,96.17
2018-11-03T15:50:57.853Z,47.20
2018-11-03T15:53:27.765Z,44.67
2018-11-03T15:55:57.575Z,38.23
2018-11-03T15:58:27.487Z,40.03
2018-11-03T16:00:57.406Z,36.33
2018-11-03T16:03:27.221Z,41.13
2018-11-03T16:05:57.235Z,64.63
2018-11-03T16:08:27.556Z,87.20
2018-11-03T16:10:57.687Z,141.67
2018-11-03T16:13:27.487Z,118.47
2018-11-03T16:15:57.506Z,88.33
2018-11-03T16:18:27.416Z,91.53
2018-11-03T16:20:57.958Z,108.97
2018-11-03T16:23:29.521Z,109.63
2018-11-03T16:26:00.720Z,79.60
2018-11-03T16:28:30.938Z,48.53
2018-11-03T16:31:01.804Z,81.43
2018-11-03T16:33:32.226Z,42.97
2018-11-03T16:36:02.963Z,65.63
2018-11-03T16:38:36.010Z,74.73
2018-11-03T16:41:06.381Z,56.83
2018-11-03T16:43:37.617Z,68.77
2018-11-03T16:46:07.841Z,65.90
2018-11-03T16:48:39.398Z,71.10
2018-11-03T16:51:09.409Z,71.23
2018-11-03T16:53:40.344Z,66.80
2018-11-03T16:56:10.567Z,66.97
2018-11-03T16:58:41.271Z,69.73
2018-11-03T17:01:11.732Z,109.93
2018-11-03T17:03:42.361Z,84.53
2018-11-03T17:06:12.988Z,108.70
2018-11-03T17:08:44.853Z,124.03
2018-11-03T17:11:21.625Z,120.80
2018-11-03T17:13:52.868Z,145.07
2018-11-03T17:16:23.819Z,99.57
2018-11-03T17:18:55.847Z,103.97
2018-11-03T17:21:28.664Z,75.90
2018-11-03T17:24:00.308Z,65.37
2018-11-03T17:26:30.939Z,86.73
2018-11-03T17:29:00.852Z,84.67
2018-11-03T17:31:30.998Z,79.53
2018-11-03T17:34:05.286Z,71.10
2018-11-03T17:36:36.431Z,98.70
2018-11-03T17:39:10.748Z,66.77
2018-11-03T17:41:42.303Z,70.17
2018-11-03T17:44:13.109Z,77.57
2018-11-03T17:46:43.869Z,74.07
2018-11-03T17:49:14.810Z,80.43
2018-11-03T17:51:47.699Z,88.40
2018-11-03T17:54:18.224Z,96.07
2018-11-03T17:56:52.137Z,85.97
2018-11-03T17:59:21.849Z,91.83
2018-11-03T18:01:52.978Z,82.67
2018-11-03T18:04:24.949Z,77.17
2018-11-03T18:06:56.389Z,66.90
2018-11-03T18:09:29.070Z,72.77
2018-11-03T18:12:00.120Z,83.87
2018-11-03T18:14:31.869Z,66.73
2018-11-03T18:17:04.439Z,66.60
2018-11-03T18:19:36.075Z,59.20
2018-11-03T18:22:08.275Z,59.47
2018-11-03T18:24:39.928Z,67.73
2018-11-03T18:27:10.851Z,60.93
2018-11-03T18:29:43.334Z,70.10
2018-11-03T18:32:19.397Z,62.23
2018-11-03T18:34:50.546Z,65.90
2018-11-03T18:37:20.663Z,64.13
2018-11-03T18:39:51.389Z,63.50
2018-11-03T18:42:22.033Z,64.43
2018-11-03T18:44:52.139Z,58.07
2018-11-03T18:47:22.779Z,60.53
2018-11-03T18:49:53.814Z,57.67
2018-11-03T18:52:24.336Z,61.27
2018-11-03T18:54:58.140Z,63.10
2018-11-03T18:57:28.764Z,64.83
2018-11-03T18:59:59.810Z,57.47
2018-11-03T19:02:30.616Z,59.47
2018-11-03T19:05:02.823Z,57.00
2018-11-03T19:07:33.856Z,65.53
2018-11-03T19:10:03.874Z,66.67
2018-11-03T19:12:33.893Z,70.13
2018-11-03T19:15:04.523Z,58.87
2018-11-03T19:17:35.166Z,62.60
2018-11-03T19:20:05.476Z,72.50
2018-11-03T19:22:35.902Z,62.57
2018-11-03T19:25:07.367Z,59.93
2018-11-03T19:27:38.704Z,57.90
2018-11-03T19:30:10.714Z,59.20
2018-11-03T19:32:42.109Z,59.33
2018-11-03T19:35:13.769Z,57.83
2018-11-03T19:37:44.399Z,59.27
2018-11-03T19:40:15.651Z,68.23
2018-11-03T19:42:45.766Z,63.50
2018-11-03T19:45:15.790Z,67.87
2018-11-03T19:47:46.408Z,70.47
2018-11-03T19:50:16.631Z,66.33
2018-11-03T19:52:46.858Z,84.10
2018-11-03T19:55:16.768Z,66.83
2018-11-03T19:57:46.883Z,70.43
2018-11-03T20:00:17.207Z,59.90
2018-11-03T20:02:47.845Z,81.97
2018-11-03T20:05:17.463Z,64.63
2018-11-03T20:07:47.475Z,76.07
2018-11-03T20:10:17.785Z,76.40
2018-11-03T20:12:47.811Z,88.90
2018-11-03T20:15:17.921Z,82.40
2018-11-03T20:17:47.972Z,63.70
2018-11-03T20:20:17.855Z,72.10
2018-11-03T20:22:48.277Z,68.40
2018-11-03T20:25:20.960Z,65.40
2018-11-03T20:27:50.869Z,69.40
2018-11-03T20:30:20.788Z,78.53
2018-11-03T20:32:50.710Z,81.73
2018-11-03T20:35:20.510Z,76.63
2018-11-03T20:37:50.120Z,68.17
2018-11-03T20:40:20.133Z,67.67
2018-11-03T20:42:50.153Z,66.27
2018-11-03T20:45:20.782Z,63.70
2018-11-03T20:47:52.542Z,67.73
2018-11-03T20:50:23.170Z,63.83
2018-11-03T20:52:53.288Z,73.20
2018-11-03T20:55:23.818Z,69.73
2018-11-03T20:57:53.833Z,63.00
2018-11-03T21:00:23.852Z,57.03
2018-11-03T21:02:54.175Z,54.90
2018-11-03T21:05:24.293Z,57.97
2018-11-03T21:07:54.887Z,58.87
2018-11-03T21:10:25.965Z,60.60
2018-11-03T21:12:56.289Z,59.23
2018-11-03T21:15:26.924Z,59.20
2018-11-03T21:17:57.447Z,58.90
2018-11-03T21:20:28.383Z,56.67
2018-11-03T21:22:58.921Z,59.80
2018-11-03T21:25:29.646Z,60.13
2018-11-03T21:28:00.929Z,59.93
2018-11-03T21:30:31.112Z,60.83
2018-11-03T21:33:01.586Z,60.53
2018-11-03T21:35:32.782Z,70.17
2018-11-03T21:38:03.550Z,61.30
2018-11-03T21:40:34.663Z,60.67
2018-11-03T21:43:04.478Z,59.33
2018-11-03T21:45:34.492Z,57.33
2018-11-03T21:48:05.008Z,61.67
2018-11-03T21:50:35.146Z,60.63
2018-11-03T21:53:05.156Z,59.40
2018-11-03T21:55:35.272Z,58.10
2018-11-03T21:58:05.073Z,57.97
2018-11-03T22:00:35.094Z,68.23
2018-11-03T22:03:05.006Z,58.27
2018-11-03T22:05:34.726Z,58.97
2018-11-03T22:08:05.460Z,54.60
2018-11-03T22:10:35.062Z,52.03
2018-11-03T22:13:04.773Z,50.90
2018-11-03T22:15:34.484Z,54.17
2018-11-03T22:18:04.400Z,55.80
2018-11-03T22:20:34.413Z,64.50
2018-11-03T22:23:04.024Z,56.27
2018-11-03T22:25:33.838Z,52.43
2018-11-03T22:28:04.144Z,56.60
2018-11-03T22:30:34.061Z,51.43
2018-11-03T22:33:04.384Z,52.83
2018-11-03T22:35:34.519Z,57.37
2018-11-03T22:38:04.834Z,55.10
2018-11-03T22:40:34.547Z,59.30
2018-11-03T22:43:05.020Z,55.23
2018-11-03T22:45:34.987Z,51.37
2018-11-03T22:48:04.901Z,52.80
2018-11-03T22:50:35.123Z,54.83
2018-11-03T22:53:05.245Z,54.60
2018-11-03T22:55:35.361Z,59.73
2018-11-03T22:58:05.279Z,65.40
2018-11-03T23:00:39.388Z,59.83
2018-11-03T23:03:09.202Z,67.30
2018-11-03T23:05:39.316Z,60.87
2018-11-03T23:08:09.434Z,56.47
2018-11-03T23:10:39.556Z,58.13
2018-11-03T23:13:09.973Z,53.20
2018-11-03T23:15:39.698Z,53.40
2018-11-03T23:18:09.811Z,52.03
2018-11-03T23:20:39.828Z,48.53
2018-11-03T23:23:09.948Z,49.87
2018-11-03T23:25:39.656Z,50.43
2018-11-03T23:28:09.772Z,53.23
2018-11-03T23:30:39.687Z,49.67
2018-11-03T23:33:09.703Z,52.47
2018-11-03T23:35:39.116Z,51.80
2018-11-03T23:38:09.270Z,50.07
2018-11-03T23:40:39.143Z,52.80
2018-11-03T23:43:09.777Z,51.83
2018-11-03T23:45:39.783Z,49.57
2018-11-03T23:48:09.908Z,50.77
2018-11-03T23:50:39.820Z,48.77
2018-11-03T23:53:09.879Z,50.13
2018-11-03T23:55:39.751Z,53.37
2018-11-03T23:58:09.866Z,51.83
